createdAt,value
2019-06-07T00:02:16.530Z,17.33
2019-06-07T00:04:45.767Z,16.87
2019-06-07T00:07:16.949Z,17.63
2019-06-07T00:09:45.115Z,17.03
2019-06-07T00:12:14.896Z,16.70
2019-06-07T00:14:44.701Z,16.60
2019-06-07T00:17:15.475Z,15.30
2019-06-07T00:19:44.145Z,15.90
2019-06-07T00:22:18.008Z,16.43
2019-06-07T00:24:43.700Z,15.90
2019-06-07T00:27:12.901Z,16.00
2019-06-07T00:29:41.795Z,16.00
2019-06-07T00:32:11.699Z,14.97
2019-06-07T00:34:41.354Z,14.73
2019-06-07T00:37:11.126Z,15.13
2019-06-07T00:39:40.875Z,14.53
2019-06-07T00:42:10.774Z,14.20
2019-06-07T00:44:40.639Z,14.70
2019-06-07T00:47:10.683Z,15.33
2019-06-07T00:49:41.362Z,14.87
2019-06-07T00:52:18.313Z,15.67
2019-06-07T00:54:43.129Z,15.17
2019-06-07T00:57:12.414Z,14.43
2019-06-07T00:59:42.204Z,14.10
2019-06-07T01:02:14.225Z,14.90
2019-06-07T01:04:43.249Z,15.57
2019-06-07T01:07:13.234Z,14.67
2019-06-07T01:09:42.338Z,14.10
2019-06-07T01:12:18.108Z,14.97
2019-06-07T01:14:45.050Z,15.50
2019-06-07T01:17:27.566Z,15.70
2019-06-07T01:19:53.481Z,14.50
2019-06-07T01:22:23.414Z,15.67
2019-06-07T01:24:52.884Z,14.73
2019-06-07T01:27:24.172Z,15.00
2019-06-07T01:29:52.725Z,14.77
2019-06-07T01:32:23.831Z,14.60
2019-06-07T01:34:54.196Z,14.67
2019-06-07T01:37:26.183Z,13.83
2019-06-07T01:39:53.326Z,14.90
2019-06-07T01:42:29.434Z,15.33
2019-06-07T01:44:53.122Z,15.17
2019-06-07T01:47:25.597Z,14.73
2019-06-07T01:49:54.307Z,15.30
2019-06-07T01:52:26.840Z,14.43
2019-06-07T01:54:58.750Z,15.13
2019-06-07T01:57:38.425Z,16.40
2019-06-07T01:59:56.903Z,17.37
2019-06-07T02:02:31.555Z,15.73
2019-06-07T02:04:59.519Z,18.33
2019-06-07T02:07:32.921Z,19.03
2019-06-07T02:09:58.843Z,20.13
2019-06-07T02:12:37.582Z,20.90
2019-06-07T02:14:58.466Z,21.20
2019-06-07T02:17:32.890Z,21.80
2019-06-07T02:20:01.136Z,22.70
2019-06-07T02:22:35.282Z,22.47
2019-06-07T02:25:35.002Z,22.97
2019-06-07T02:27:35.013Z,22.93
2019-06-07T02:30:35.148Z,22.93
2019-06-07T02:32:37.103Z,24.27
2019-06-07T02:35:06.045Z,25.27
2019-06-07T02:37:37.030Z,26.07
2019-06-07T02:40:06.039Z,25.83
2019-06-07T02:42:41.730Z,25.60
2019-06-07T02:45:10.863Z,25.43
2019-06-07T02:47:40.468Z,26.43
2019-06-07T02:50:09.417Z,24.63
2019-06-07T02:52:40.831Z,25.53
2019-06-07T02:55:09.301Z,24.43
2019-06-07T02:57:41.878Z,24.93
2019-06-07T03:00:40.644Z,24.27
2019-06-07T03:02:41.751Z,23.43
2019-06-07T03:05:10.821Z,23.57
2019-06-07T03:07:45.184Z,23.43
2019-06-07T03:10:13.357Z,23.33
2019-06-07T03:12:43.072Z,23.87
2019-06-07T03:15:30.098Z,22.07
2019-06-07T03:18:08.240Z,20.83
2019-06-07T03:20:37.187Z,19.53
2019-06-07T03:23:06.132Z,19.57
2019-06-07T03:25:37.379Z,19.90
2019-06-07T03:28:07.732Z,20.27
2019-06-07T03:30:48.767Z,20.43
2019-06-07T03:33:10.755Z,20.60
2019-06-07T03:35:40.630Z,20.60
2019-06-07T03:38:09.862Z,21.80
2019-06-07T03:40:40.200Z,22.50
2019-06-07T03:43:09.358Z,21.63
2019-06-07T03:45:41.400Z,21.27
2019-06-07T03:48:08.865Z,21.37
2019-06-07T03:50:41.944Z,21.53
2019-06-07T03:53:08.371Z,20.57
2019-06-07T03:55:41.352Z,20.43
2019-06-07T04:00:43.269Z,19.87
2019-06-07T04:03:32.464Z,20.50
2019-06-07T04:05:45.185Z,19.53
2019-06-07T04:08:14.488Z,19.53
2019-06-07T04:10:58.730Z,19.13
2019-06-07T04:13:16.962Z,18.80
2019-06-07T04:15:46.142Z,19.43
2019-06-07T04:18:15.327Z,18.00
2019-06-07T04:20:46.579Z,18.17
2019-06-07T04:23:27.661Z,16.70
2019-06-07T04:25:46.078Z,17.50
2019-06-07T04:28:18.088Z,17.83
2019-06-07T04:30:46.977Z,18.40
2019-06-07T04:33:18.172Z,19.10
2019-06-07T04:35:47.244Z,19.17
2019-06-07T04:38:16.121Z,20.83
2019-06-07T04:40:46.828Z,21.77
2019-06-07T04:43:16.048Z,21.23
2019-06-07T04:45:51.025Z,20.47
2019-06-07T04:48:20.878Z,19.83
2019-06-07T04:50:49.895Z,19.43
2019-06-07T04:53:18.746Z,19.87
2019-06-07T04:55:50.656Z,19.87
2019-06-07T04:58:19.539Z,19.10
2019-06-07T05:00:53.993Z,18.40
2019-06-07T05:03:19.745Z,18.87
2019-06-07T05:05:51.944Z,18.67
2019-06-07T05:08:28.109Z,19.03
2019-06-07T05:10:52.484Z,18.50
2019-06-07T05:13:21.421Z,18.03
2019-06-07T05:15:50.368Z,19.00
2019-06-07T05:18:20.819Z,19.37
2019-06-07T05:20:49.672Z,18.80
2019-06-07T05:24:00.159Z,19.03
2019-06-07T05:25:52.516Z,20.10
2019-06-07T05:28:21.520Z,17.20
2019-06-07T05:31:05.181Z,18.43
2019-06-07T05:33:23.500Z,18.20
2019-06-07T05:35:52.335Z,20.07
2019-06-07T05:38:23.709Z,19.17
2019-06-07T05:40:52.702Z,20.00
2019-06-07T05:43:23.245Z,18.73
2019-06-07T05:45:52.166Z,17.67
2019-06-07T05:48:21.354Z,16.30
2019-06-07T05:50:56.793Z,16.93
2019-06-07T05:53:21.144Z,16.83
2019-06-07T05:55:51.566Z,16.63
2019-06-07T05:58:20.470Z,16.17
2019-06-07T06:00:50.996Z,17.77
2019-06-07T06:03:20.066Z,16.17
2019-06-07T06:05:54.985Z,17.97
2019-06-07T06:08:19.590Z,17.20
2019-06-07T06:10:50.849Z,17.63
2019-06-07T06:13:19.894Z,17.27
2019-06-07T06:16:00.854Z,18.60
2019-06-07T06:18:19.484Z,18.97
2019-06-07T06:21:09.910Z,19.07
2019-06-07T06:23:24.577Z,18.93
2019-06-07T06:25:57.586Z,17.80
2019-06-07T06:28:24.523Z,18.37
2019-06-07T06:30:56.359Z,18.83
2019-06-07T06:33:33.553Z,17.40
2019-06-07T06:35:59.162Z,19.80
2019-06-07T06:38:28.051Z,19.93
2019-06-07T06:41:14.401Z,19.77
2019-06-07T06:43:27.572Z,20.43
2019-06-07T06:45:56.510Z,21.33
2019-06-07T06:48:25.657Z,22.17
2019-06-07T06:50:54.787Z,23.10
2019-06-07T06:53:23.790Z,22.33
2019-06-07T06:55:52.834Z,22.90
2019-06-07T06:58:21.682Z,21.80
2019-06-07T07:01:04.950Z,22.50
2019-06-07T07:04:11.222Z,23.13
2019-06-07T07:05:56.187Z,22.27
2019-06-07T07:08:27.924Z,21.17
2019-06-07T07:10:57.082Z,22.87
2019-06-07T07:13:26.000Z,22.40
2019-06-07T07:15:58.590Z,23.77
2019-06-07T07:18:27.951Z,23.13
2019-06-07T07:20:57.593Z,23.33
2019-06-07T07:23:30.039Z,23.73
2019-06-07T07:26:01.521Z,24.90
2019-06-07T07:28:33.982Z,22.40
2019-06-07T07:31:05.225Z,25.10
2019-06-07T07:34:20.931Z,24.13
2019-06-07T07:36:28.196Z,24.10
2019-06-07T07:38:35.461Z,24.77
2019-06-07T07:41:14.436Z,25.57
2019-06-07T07:43:35.342Z,22.63
2019-06-07T07:46:28.055Z,25.00
2019-06-07T07:48:34.829Z,24.80
2019-06-07T07:51:03.854Z,24.10
2019-06-07T07:53:48.661Z,23.63
2019-06-07T07:56:03.514Z,25.03
2019-06-07T07:58:32.952Z,23.77
2019-06-07T08:01:10.267Z,24.50
2019-06-07T08:03:36.413Z,25.60
2019-06-07T08:06:05.410Z,27.17
2019-06-07T08:08:34.573Z,27.67
2019-06-07T08:11:03.460Z,27.87
2019-06-07T08:13:39.847Z,27.23
2019-06-07T08:16:12.577Z,27.57
2019-06-07T08:18:37.168Z,25.87
2019-06-07T08:21:23.710Z,27.43
2019-06-07T08:23:37.019Z,25.43
2019-06-07T08:26:06.016Z,27.77
2019-06-07T08:28:34.922Z,25.47
2019-06-07T08:31:06.867Z,24.00
2019-06-07T08:33:34.405Z,24.10
2019-06-07T08:36:19.536Z,23.50
2019-06-07T08:38:47.522Z,24.33
2019-06-07T08:41:12.133Z,24.67
2019-06-07T08:43:37.716Z,25.10
2019-06-07T08:46:07.993Z,25.70
2019-06-07T08:48:37.295Z,23.47
2019-06-07T08:51:08.601Z,23.10
2019-06-07T08:53:40.114Z,25.27
2019-06-07T08:56:11.045Z,23.37
2019-06-07T08:58:42.930Z,24.10
2019-06-07T09:01:11.908Z,23.30
2019-06-07T09:03:41.071Z,23.73
2019-06-07T09:06:53.905Z,25.97
2019-06-07T09:08:40.852Z,25.27
2019-06-07T09:11:11.401Z,27.07
2019-06-07T09:13:40.381Z,25.37
2019-06-07T09:16:09.323Z,23.00
2019-06-07T09:18:43.570Z,25.47
2019-06-07T09:21:09.717Z,23.63
2019-06-07T09:23:42.009Z,22.77
2019-06-07T09:26:18.395Z,24.23
2019-06-07T09:28:41.824Z,23.43
2019-06-07T09:31:12.773Z,25.13
2019-06-07T09:33:41.437Z,24.37
2019-06-07T09:36:13.539Z,25.07
2019-06-07T09:38:42.765Z,25.47
2019-06-07T09:41:11.727Z,26.33
2019-06-07T09:44:01.945Z,24.57
2019-06-07T09:46:15.432Z,24.57
2019-06-07T09:51:19.381Z,25.27
2019-06-07T09:53:43.139Z,25.77
2019-06-07T09:56:12.484Z,26.03
2019-06-07T09:58:51.886Z,25.00
2019-06-07T10:01:13.705Z,24.50
2019-06-07T10:03:42.688Z,23.57
2019-06-07T10:06:13.548Z,24.03
2019-06-07T10:11:16.147Z,23.53
2019-06-07T10:13:45.201Z,23.33
2019-06-07T10:16:14.217Z,23.97
2019-06-07T10:18:43.168Z,23.70
2019-06-07T10:21:14.986Z,24.07
2019-06-07T10:23:42.618Z,21.93
2019-06-07T10:26:11.646Z,22.87
2019-06-07T10:28:40.590Z,22.23
2019-06-07T10:31:11.363Z,22.63
2019-06-07T10:33:40.528Z,20.67
2019-06-07T10:36:10.661Z,20.63
2019-06-07T10:38:43.046Z,22.63
2019-06-07T10:41:17.572Z,21.07
2019-06-07T10:43:46.595Z,21.40
2019-06-07T10:46:17.594Z,21.97
2019-06-07T10:48:46.517Z,22.57
2019-06-07T10:51:18.686Z,21.07
2019-06-07T10:53:51.137Z,23.03
2019-06-07T10:56:26.361Z,21.43
2019-06-07T10:58:55.497Z,21.03
2019-06-07T11:01:24.409Z,21.53
2019-06-07T11:03:53.267Z,20.87
2019-06-07T11:06:24.322Z,21.73
2019-06-07T11:08:53.231Z,20.17
2019-06-07T11:11:22.158Z,20.90
2019-06-07T11:13:52.583Z,21.23
2019-06-07T11:16:21.799Z,20.90
2019-06-07T11:18:50.713Z,21.10
2019-06-07T11:21:22.439Z,19.73
2019-06-07T11:23:51.320Z,20.47
2019-06-07T11:26:22.559Z,19.87
2019-06-07T11:28:54.369Z,20.50
2019-06-07T11:31:23.289Z,18.80
2019-06-07T11:33:52.634Z,18.33
2019-06-07T11:36:25.883Z,19.40
2019-06-07T11:38:57.967Z,19.20
2019-06-07T11:41:29.718Z,20.03
2019-06-07T11:43:58.645Z,19.87
2019-06-07T11:46:30.002Z,18.93
2019-06-07T11:48:59.153Z,18.40
2019-06-07T11:51:30.249Z,18.00
2019-06-07T11:53:59.115Z,18.83
2019-06-07T11:56:28.226Z,17.43
2019-06-07T11:58:57.273Z,18.67
2019-06-07T12:01:26.221Z,17.43
2019-06-07T12:03:58.236Z,17.53
2019-06-07T12:06:26.089Z,17.07
2019-06-07T12:08:55.157Z,16.90
2019-06-07T12:11:24.159Z,17.63
2019-06-07T12:13:53.224Z,16.33
2019-06-07T12:16:22.278Z,16.50
2019-06-07T12:18:51.486Z,16.83
2019-06-07T12:21:20.382Z,17.30
2019-06-07T12:23:51.830Z,16.50
2019-06-07T12:26:23.130Z,15.60
2019-06-07T12:28:52.288Z,16.37
2019-06-07T12:31:21.873Z,14.77
2019-06-07T23:27:12.404Z,26.53
2019-06-07T23:29:41.668Z,25.60
2019-06-07T23:32:10.581Z,26.00
2019-06-07T23:34:39.556Z,25.20
2019-06-07T23:37:11.027Z,25.40
2019-06-07T23:39:40.395Z,25.60
2019-06-07T23:42:09.473Z,26.40
2019-06-07T23:44:38.633Z,27.33
2019-06-07T23:47:11.113Z,24.67
2019-06-07T23:49:38.181Z,26.73
2019-06-07T23:52:11.568Z,25.33
2019-06-07T23:54:40.857Z,26.80
2019-06-07T23:57:13.989Z,27.17
2019-06-07T23:59:42.990Z,26.07
